Time;durP1;ratioP1;P1;durP2;ratioP2;P2;SDS_P1;SDS_P2;PMS_P1;PMS_P2;Temp;Humidity;BMP_temperature;BMP_pressure;BME280_temperature;BME280_humidity;BME280_pressure;Samples;Min_cycle;Max_cycle;Signal;HPM_P1;HPM_P2
2023/10/25 00:00:14;;;;;;;7.80;7.00;;;;;;;;;;4927643;29;20228;-82
2023/10/25 00:03:18;;;;;;;8.93;7.80;;;;;;;;;;4916513;29;20188;-82
2023/10/25 00:06:23;;;;;;;9.70;8.00;;;;;;;;;;4927689;29;20220;-82
2023/10/25 00:09:27;;;;;;;9.10;7.90;;;;;;;;;;4915864;29;20228;-82
2023/10/25 00:12:31;;;;;;;10.90;7.77;;;;;;;;;;4926405;29;20200;-82
2023/10/25 00:15:35;;;;;;;12.10;8.67;;;;;;;;;;4927140;29;20189;-82
2023/10/25 00:18:39;;;;;;;10.57;9.47;;;;;;;;;;4925838;29;20228;-82
2023/10/25 00:21:43;;;;;;;14.00;10.20;;;;;;;;;;4926820;29;20192;-82
2023/10/25 00:24:48;;;;;;;12.43;9.90;;;;;;;;;;4916014;29;20557;-82
2023/10/25 00:27:52;;;;;;;10.47;9.27;;;;;;;;;;4915879;29;20645;-82
2023/10/25 00:30:56;;;;;;;12.33;9.70;;;;;;;;;;4915670;29;20661;-82
2023/10/25 00:34:00;;;;;;;10.87;9.77;;;;;;;;;;4915754;29;20195;-82
2023/10/25 00:37:06;;;;;;;10.83;9.73;;;;;;;;;;4915443;29;20188;-82
2023/10/25 00:40:11;;;;;;;11.73;10.17;;;;;;;;;;4915582;29;20605;-82
2023/10/25 00:43:21;;;;;;;12.30;9.97;;;;;;;;;;4916192;29;20196;-82
2023/10/25 00:46:28;;;;;;;15.00;10.60;;;;;;;;;;4904354;29;20706;-82
2023/10/25 00:49:32;;;;;;;12.87;11.37;;;;;;;;;;4915909;29;20226;-82
2023/10/25 00:52:37;;;;;;;15.90;11.80;;;;;;;;;;4915631;29;20191;-82
2023/10/25 00:55:41;;;;;;;12.07;10.70;;;;;;;;;;4914702;29;20199;-82
2023/10/25 00:58:49;;;;;;;12.23;10.63;;;;;;;;;;4915472;29;20597;-82
2023/10/25 01:01:53;;;;;;;11.80;10.57;;;;;;;;;;4925781;29;20203;-82
2023/10/25 01:04:58;;;;;;;11.40;10.07;;;;;;;;;;4925109;29;20199;-82
2023/10/25 01:08:02;;;;;;;11.77;10.20;;;;;;;;;;4913845;29;20195;-82
2023/10/25 01:11:06;;;;;;;12.83;10.63;;;;;;;;;;4919527;29;20215;-82
2023/10/25 01:14:11;;;;;;;13.10;10.87;;;;;;;;;;4914580;29;20545;-82
2023/10/25 01:17:15;;;;;;;12.17;10.97;;;;;;;;;;4915131;29;20199;-82
2023/10/25 01:20:19;;;;;;;13.37;11.30;;;;;;;;;;4925453;29;20238;-82
2023/10/25 01:23:24;;;;;;;13.13;11.57;;;;;;;;;;4914871;29;20700;-82
2023/10/25 01:26:28;;;;;;;13.63;12.13;;;;;;;;;;4915202;29;20243;-82
2023/10/25 01:29:32;;;;;;;12.80;11.13;;;;;;;;;;4926714;29;20230;-82
2023/10/25 01:32:37;;;;;;;13.17;11.23;;;;;;;;;;4918302;29;20199;-82
2023/10/25 01:35:41;;;;;;;15.53;12.03;;;;;;;;;;4919302;29;20565;-82
2023/10/25 01:38:45;;;;;;;12.07;10.63;;;;;;;;;;4930443;29;20230;-82
2023/10/25 01:41:49;;;;;;;12.77;11.40;;;;;;;;;;4930192;29;20195;-82
2023/10/25 01:44:53;;;;;;;15.80;11.53;;;;;;;;;;4919116;29;20557;-82
2023/10/25 01:47:57;;;;;;;12.57;11.27;;;;;;;;;;4918832;29;20191;-82
2023/10/25 01:51:02;;;;;;;13.33;11.97;;;;;;;;;;4918712;29;20688;-82
2023/10/25 01:54:06;;;;;;;13.40;11.20;;;;;;;;;;4929693;29;20572;-82
2023/10/25 01:57:11;;;;;;;15.63;11.10;;;;;;;;;;4929257;29;20191;-82
2023/10/25 02:00:15;;;;;;;11.80;10.57;;;;;;;;;;4918269;29;20234;-82
2023/10/25 02:03:20;;;;;;;14.50;11.27;;;;;;;;;;4918904;29;20199;-82
2023/10/25 02:06:24;;;;;;;12.73;11.43;;;;;;;;;;4918917;29;20577;-82
2023/10/25 02:09:29;;;;;;;12.43;11.13;;;;;;;;;;4919133;29;20234;-82
2023/10/25 02:12:32;;;;;;;12.87;11.00;;;;;;;;;;4918080;29;20195;-82
2023/10/25 02:15:36;;;;;;;11.93;10.63;;;;;;;;;;4918037;29;20191;-82
2023/10/25 02:18:41;;;;;;;13.90;10.50;;;;;;;;;;4918323;29;20235;-84
2023/10/25 02:21:45;;;;;;;11.90;9.70;;;;;;;;;;4930817;29;20191;-84
2023/10/25 02:24:53;;;;;;;15.37;11.37;;;;;;;;;;4940707;29;20184;-84
2023/10/25 02:27:57;;;;;;;10.63;9.53;;;;;;;;;;4941135;29;20223;-84
2023/10/25 02:31:01;;;;;;;11.37;9.63;;;;;;;;;;4940984;29;20196;-84
2023/10/25 02:34:05;;;;;;;11.23;9.03;;;;;;;;;;4940552;29;20199;-84
2023/10/25 02:37:09;;;;;;;12.53;10.13;;;;;;;;;;4917726;29;20184;-84
2023/10/25 02:40:13;;;;;;;10.87;9.73;;;;;;;;;;4917867;29;20239;-84
2023/10/25 02:43:17;;;;;;;11.73;10.00;;;;;;;;;;4928413;29;20538;-84
2023/10/25 02:46:22;;;;;;;11.93;9.80;;;;;;;;;;4928359;29;20225;-84
2023/10/25 02:49:26;;;;;;;11.20;10.00;;;;;;;;;;4928545;29;20558;-84
2023/10/25 02:52:30;;;;;;;10.97;9.87;;;;;;;;;;4917430;29;20184;-84
2023/10/25 02:55:35;;;;;;;13.00;10.73;;;;;;;;;;4929378;29;20192;-84
2023/10/25 02:58:40;;;;;;;12.13;10.33;;;;;;;;;;4917335;29;20231;-84
2023/10/25 03:01:43;;;;;;;14.27;10.27;;;;;;;;;;4927561;29;20184;-84
2023/10/25 03:04:47;;;;;;;14.10;9.37;;;;;;;;;;4927920;29;20193;-84
2023/10/25 03:07:51;;;;;;;11.10;9.93;;;;;;;;;;4927407;29;20212;-84
2023/10/25 03:10:56;;;;;;;10.97;9.33;;;;;;;;;;4905258;29;20184;-84
2023/10/25 03:14:00;;;;;;;12.63;9.93;;;;;;;;;;4916201;29;20193;-84
2023/10/25 03:17:04;;;;;;;9.70;8.67;;;;;;;;;;4938654;29;20184;-84
2023/10/25 03:20:08;;;;;;;10.43;8.90;;;;;;;;;;4926323;29;20232;-84
2023/10/25 03:23:16;;;;;;;10.17;9.07;;;;;;;;;;4938567;29;20192;-84
2023/10/25 03:26:50;;;;;;;13.07;10.17;;;;;;;;;;4917095;29;20239;-84
2023/10/25 03:39:13;;;;;;;9.80;7.77;;;;;;;;;;4956283;29;20220;-84
2023/10/25 03:42:18;;;;;;;10.87;7.43;;;;;;;;;;4945639;29;20188;-85
2023/10/25 03:45:23;;;;;;;8.10;7.30;;;;;;;;;;4933139;29;20184;-84
2023/10/25 03:48:40;;;;;;;8.53;7.63;;;;;;;;;;4911284;29;20705;-84
2023/10/25 03:52:12;;;;;;;10.50;8.00;;;;;;;;;;4919121;29;20188;-84
2023/10/25 03:55:44;;;;;;;14.70;8.37;;;;;;;;;;4928655;29;20192;-84
2023/10/25 04:00:09;;;;;;;9.93;7.67;;;;;;;;;;4951574;29;20224;-86
2023/10/25 04:03:27;;;;;;;9.67;7.47;;;;;;;;;;4929211;29;20200;-85
2023/10/25 04:06:31;;;;;;;9.53;6.97;;;;;;;;;;4929263;29;20220;-84
2023/10/25 04:09:43;;;;;;;10.27;7.37;;;;;;;;;;4939572;29;20231;-85
2023/10/25 04:12:48;;;;;;;9.03;7.60;;;;;;;;;;4928023;29;20189;-85
2023/10/25 04:16:09;;;;;;;9.77;7.00;;;;;;;;;;4906503;29;20196;-85
2023/10/25 04:19:30;;;;;;;8.50;7.60;;;;;;;;;;4924590;29;20232;-84
2023/10/25 04:22:43;;;;;;;12.30;8.07;;;;;;;;;;4925344;29;20192;-84
2023/10/25 04:26:28;;;;;;;8.80;7.43;;;;;;;;;;4945020;29;20189;-84
2023/10/25 04:29:43;;;;;;;8.53;7.63;;;;;;;;;;4936734;29;20596;-84
2023/10/25 04:37:14;;;;;;;8.73;7.17;;;;;;;;;;4932933;29;20180;-84
2023/10/25 04:40:19;;;;;;;9.07;7.47;;;;;;;;;;4935453;29;20220;-84
2023/10/25 04:43:29;;;;;;;8.47;7.20;;;;;;;;;;4916668;29;20185;-85
2023/10/25 04:47:05;;;;;;;10.00;7.30;;;;;;;;;;4924352;29;20216;-85
2023/10/25 04:50:25;;;;;;;8.37;7.07;;;;;;;;;;4921695;29;20228;-84
2023/10/25 04:53:29;;;;;;;8.60;7.70;;;;;;;;;;4942771;29;20193;-82
2023/10/25 04:56:33;;;;;;;8.53;7.50;;;;;;;;;;4945430;29;20188;-83
2023/10/25 04:59:43;;;;;;;9.00;7.07;;;;;;;;;;4943178;29;20215;-84
2023/10/25 05:02:50;;;;;;;7.70;6.80;;;;;;;;;;4934549;29;20188;-85
2023/10/25 05:06:07;;;;;;;10.10;7.27;;;;;;;;;;4915934;29;20199;-84
2023/10/25 05:09:14;;;;;;;9.10;7.70;;;;;;;;;;4916107;29;20224;-84
2023/10/25 05:12:27;;;;;;;7.33;6.60;;;;;;;;;;4913591;29;20188;-84
2023/10/25 05:16:00;;;;;;;10.53;7.40;;;;;;;;;;4922974;29;20189;-84
2023/10/25 05:19:05;;;;;;;9.50;7.70;;;;;;;;;;4946257;29;20223;-84
2023/10/25 05:22:14;;;;;;;10.27;8.23;;;;;;;;;;4922998;29;20188;-84
2023/10/25 05:25:31;;;;;;;9.30;7.67;;;;;;;;;;4946421;29;20185;-84
2023/10/25 05:28:36;;;;;;;8.53;7.13;;;;;;;;;;4946469;29;20232;-84
2023/10/25 05:31:45;;;;;;;8.80;7.07;;;;;;;;;;4925437;29;20184;-85
2023/10/25 05:34:50;;;;;;;7.73;6.93;;;;;;;;;;4913172;29;20192;-83
2023/10/25 05:37:54;;;;;;;7.07;6.17;;;;;;;;;;4946677;29;20188;-85
2023/10/25 05:40:59;;;;;;;9.60;7.33;;;;;;;;;;4945326;29;20184;-84
2023/10/25 05:44:09;;;;;;;12.43;7.30;;;;;;;;;;4943485;29;20189;-84
2023/10/25 05:47:14;;;;;;;8.70;7.23;;;;;;;;;;4909882;29;20208;-84
2023/10/25 05:50:20;;;;;;;8.37;7.17;;;;;;;;;;4942609;29;20228;-83
2023/10/25 05:53:25;;;;;;;10.27;7.57;;;;;;;;;;4931702;29;20653;-84
2023/10/25 05:56:29;;;;;;;7.63;6.00;;;;;;;;;;4920368;29;20185;-84
2023/10/25 05:59:34;;;;;;;8.27;7.10;;;;;;;;;;4942203;29;20219;-84
2023/10/25 06:02:43;;;;;;;8.07;6.73;;;;;;;;;;4919959;29;20184;-85
2023/10/25 06:05:56;;;;;;;7.27;6.40;;;;;;;;;;4919900;29;20193;-84
2023/10/25 06:09:08;;;;;;;10.20;7.23;;;;;;;;;;4920468;29;20240;-84
2023/10/25 06:12:17;;;;;;;7.10;6.40;;;;;;;;;;4942526;29;20189;-85
2023/10/25 06:24:12;;;;;;;8.90;7.13;;;;;;;;;;4930887;29;20184;-83
2023/10/25 06:27:16;;;;;;;9.27;7.90;;;;;;;;;;4942870;29;20558;-83
2023/10/25 06:30:21;;;;;;;7.47;6.67;;;;;;;;;;4930264;29;20231;-83
2023/10/25 06:33:25;;;;;;;8.10;6.60;;;;;;;;;;4931273;29;20192;-84
2023/10/25 06:36:34;;;;;;;7.80;7.00;;;;;;;;;;4931691;29;20193;-83
2023/10/25 06:39:38;;;;;;;8.57;7.23;;;;;;;;;;4921163;29;20563;-84
2023/10/25 06:42:42;;;;;;;10.63;8.63;;;;;;;;;;4931203;29;20192;-83
2023/10/25 06:45:47;;;;;;;9.17;7.70;;;;;;;;;;4930567;29;20538;-83
2023/10/25 06:48:52;;;;;;;17.23;8.90;;;;;;;;;;4930633;29;20235;-83
2023/10/25 06:51:57;;;;;;;22.53;8.87;;;;;;;;;;4943356;29;20188;-84
2023/10/25 06:55:01;;;;;;;9.50;7.40;;;;;;;;;;4908314;29;20192;-83
2023/10/25 06:58:05;;;;;;;10.50;8.00;;;;;;;;;;4941998;29;20188;-84
2023/10/25 07:01:11;;;;;;;9.40;8.13;;;;;;;;;;4930190;29;20189;-84
2023/10/25 07:04:16;;;;;;;18.50;7.37;;;;;;;;;;4919321;29;20189;-84
2023/10/25 07:07:23;;;;;;;9.33;7.23;;;;;;;;;;4930178;29;20220;-82
2023/10/25 07:10:27;;;;;;;17.67;7.83;;;;;;;;;;4942204;29;20192;-82
2023/10/25 07:13:31;;;;;;;15.77;7.60;;;;;;;;;;4930546;29;20188;-82
2023/10/25 07:16:54;;;;;;;8.23;7.30;;;;;;;;;;4930326;29;20192;-83
2023/10/25 07:20:01;;;;;;;9.27;7.40;;;;;;;;;;4917091;29;20228;-83
2023/10/25 07:23:06;;;;;;;7.03;6.30;;;;;;;;;;4927788;29;20208;-83
2023/10/25 07:26:10;;;;;;;8.37;6.83;;;;;;;;;;4928535;29;20188;-83
2023/10/25 07:29:14;;;;;;;8.17;6.60;;;;;;;;;;4939120;29;20235;-83
2023/10/25 07:32:19;;;;;;;6.90;6.20;;;;;;;;;;4940108;29;20534;-83
2023/10/25 07:35:22;;;;;;;6.83;5.80;;;;;;;;;;4928670;29;20188;-83
2023/10/25 07:38:27;;;;;;;6.33;5.73;;;;;;;;;;4940433;29;20223;-83
2023/10/25 07:41:31;;;;;;;7.37;6.67;;;;;;;;;;4940349;29;20196;-83
2023/10/25 07:44:39;;;;;;;8.23;6.80;;;;;;;;;;4917977;29;20645;-84
2023/10/25 07:47:45;;;;;;;7.60;6.90;;;;;;;;;;4908253;29;20212;-84
2023/10/25 07:51:36;;;;;;;9.63;7.70;;;;;;;;;;5092393;27;20781;-84
2023/10/25 09:30:46;;;;;;;1.20;1.10;;;;;;;;;;5062023;28;20236;-82
2023/10/25 09:33:50;;;;;;;1.03;0.93;;;;;;;;;;5058893;28;20204;-82
2023/10/25 09:36:56;;;;;;;2.23;1.33;;;;;;;;;;5036145;28;20180;-82
2023/10/25 09:40:09;;;;;;;1.57;1.47;;;;;;;;;;5048764;28;20212;-82
2023/10/25 09:43:20;;;;;;;3.40;1.60;;;;;;;;;;5037702;28;20184;-82
2023/10/25 09:46:32;;;;;;;2.30;1.63;;;;;;;;;;5049953;28;20177;-82
2023/10/25 09:50:16;;;;;;;1.40;1.30;;;;;;;;;;5062065;28;20223;-82
2023/10/25 09:53:32;;;;;;;2.13;1.33;;;;;;;;;;5061614;28;20172;-82
2023/10/25 09:56:43;;;;;;;1.83;1.50;;;;;;;;;;5040247;28;20189;-83
2023/10/25 09:59:56;;;;;;;1.37;1.27;;;;;;;;;;5038261;28;20217;-82
2023/10/25 10:03:25;;;;;;;3.07;2.00;;;;;;;;;;5060337;28;20176;-82
2023/10/25 10:06:46;;;;;;;1.90;1.70;;;;;;;;;;5037913;28;20176;-82
2023/10/25 10:10:01;;;;;;;2.43;1.60;;;;;;;;;;5048405;28;20688;-82
2023/10/25 10:13:46;;;;;;;4.33;1.70;;;;;;;;;;5026069;28;20652;-82
2023/10/25 10:16:50;;;;;;;1.80;1.57;;;;;;;;;;5047728;28;20177;-82
2023/10/25 10:20:05;;;;;;;1.97;1.70;;;;;;;;;;5048367;28;20207;-82
2023/10/25 10:23:10;;;;;;;3.40;2.13;;;;;;;;;;5060392;28;20184;-82
2023/10/25 10:26:47;;;;;;;2.40;2.20;;;;;;;;;;5059791;28;20184;-83
2023/10/25 10:29:58;;;;;;;2.37;1.90;;;;;;;;;;5060985;28;20220;-83
2023/10/25 10:33:11;;;;;;;4.00;1.97;;;;;;;;;;5027410;28;20212;-83
2023/10/25 10:36:32;;;;;;;2.93;1.80;;;;;;;;;;5025970;28;20188;-83
2023/10/25 10:39:58;;;;;;;1.90;1.60;;;;;;;;;;5060273;28;20550;-83
2023/10/25 10:43:06;;;;;;;2.40;1.70;;;;;;;;;;5047344;28;20177;-83
2023/10/25 10:46:15;;;;;;;1.50;1.40;;;;;;;;;;5059537;28;20188;-83
2023/10/25 10:49:23;;;;;;;1.70;1.40;;;;;;;;;;5045925;28;20224;-82
2023/10/25 10:52:32;;;;;;;1.70;1.47;;;;;;;;;;5025482;28;20176;-83
2023/10/25 10:55:37;;;;;;;2.23;1.30;;;;;;;;;;5045929;28;20176;-82
2023/10/25 10:58:41;;;;;;;1.30;1.20;;;;;;;;;;5033973;28;20562;-81
2023/10/25 11:01:45;;;;;;;1.20;0.90;;;;;;;;;;5057859;28;20180;-82
2023/10/25 11:04:49;;;;;;;1.90;1.23;;;;;;;;;;5056416;28;20681;-82
2023/10/25 11:07:54;;;;;;;1.30;1.20;;;;;;;;;;5043863;28;20644;-82
2023/10/25 11:10:58;;;;;;;1.73;1.00;;;;;;;;;;5045453;28;20212;-82
2023/10/25 11:14:04;;;;;;;1.40;1.30;;;;;;;;;;5044121;28;20639;-82
2023/10/25 11:17:14;;;;;;;1.07;0.90;;;;;;;;;;5059895;28;20172;-82
2023/10/25 11:20:20;;;;;;;1.00;0.90;;;;;;;;;;5030987;28;20216;-82
2023/10/25 11:23:30;;;;;;;1.33;1.10;;;;;;;;;;5032890;28;20184;-82
2023/10/25 11:26:40;;;;;;;1.30;0.90;;;;;;;;;;5022599;28;20665;-82
2023/10/25 11:29:48;;;;;;;1.63;0.90;;;;;;;;;;5022376;28;20227;-82
2023/10/25 11:32:55;;;;;;;1.27;0.70;;;;;;;;;;5035383;28;20211;-82
2023/10/25 11:36:01;;;;;;;0.77;0.70;;;;;;;;;;5056439;28;20176;-82
2023/10/25 11:39:08;;;;;;;1.07;0.77;;;;;;;;;;5032773;28;20215;-82
2023/10/25 11:42:14;;;;;;;1.87;0.60;;;;;;;;;;5044824;28;20172;-82
2023/10/25 11:45:21;;;;;;;0.80;0.80;;;;;;;;;;5035512;28;20180;-82
2023/10/25 11:52:20;;;;;;;2.30;0.70;;;;;;;;;;5046458;28;20177;-82
2023/10/25 11:55:26;;;;;;;1.10;0.63;;;;;;;;;;5045357;28;20173;-82
2023/10/25 11:58:30;;;;;;;0.57;0.50;;;;;;;;;;5045419;28;20216;-82
2023/10/25 12:01:35;;;;;;;2.73;0.80;;;;;;;;;;5046009;28;20184;-82
2023/10/25 12:04:39;;;;;;;0.70;0.70;;;;;;;;;;5057884;28;20510;-82
2023/10/25 12:07:43;;;;;;;0.40;0.40;;;;;;;;;;5046687;28;20184;-82
2023/10/25 12:10:47;;;;;;;0.77;0.53;;;;;;;;;;5057437;28;20212;-83
2023/10/25 12:13:52;;;;;;;1.40;0.70;;;;;;;;;;5057342;28;20625;-83
2023/10/25 12:16:58;;;;;;;1.13;0.60;;;;;;;;;;5046145;28;20184;-82
2023/10/25 12:20:02;;;;;;;0.50;0.50;;;;;;;;;;5059014;28;20212;-82
2023/10/25 12:23:06;;;;;;;0.60;0.60;;;;;;;;;;5046851;28;20534;-82
2023/10/25 12:26:11;;;;;;;2.20;0.67;;;;;;;;;;5055731;28;20628;-83
2023/10/25 12:29:15;;;;;;;1.63;0.53;;;;;;;;;;5044537;28;20216;-84
2023/10/25 12:32:21;;;;;;;5.40;0.50;;;;;;;;;;5054900;28;20177;-82
2023/10/25 12:35:26;;;;;;;0.90;0.50;;;;;;;;;;5056993;28;20176;-82
2023/10/25 12:38:30;;;;;;;1.70;0.37;;;;;;;;;;5037662;28;20223;-82
2023/10/25 12:41:34;;;;;;;0.57;0.30;;;;;;;;;;5049035;28;20176;-82
2023/10/25 12:44:38;;;;;;;1.07;0.40;;;;;;;;;;5050288;28;20176;-82
2023/10/25 12:47:43;;;;;;;1.47;0.33;;;;;;;;;;5049403;28;20180;-82
2023/10/25 12:50:47;;;;;;;0.87;0.40;;;;;;;;;;5050330;28;20203;-83
2023/10/25 12:53:51;;;;;;;0.50;0.30;;;;;;;;;;5062399;28;20180;-83
2023/10/25 12:56:55;;;;;;;0.53;0.37;;;;;;;;;;5061062;28;20180;-83
2023/10/25 13:00:00;;;;;;;1.13;0.40;;;;;;;;;;5046644;28;20216;-83
2023/10/25 13:03:04;;;;;;;1.20;0.60;;;;;;;;;;5057709;28;20176;-83
2023/10/25 13:06:08;;;;;;;0.50;0.40;;;;;;;;;;5058191;28;20184;-83
2023/10/25 13:09:12;;;;;;;2.30;0.40;;;;;;;;;;5046554;28;20696;-83
2023/10/25 13:12:16;;;;;;;1.87;0.30;;;;;;;;;;5035265;28;20637;-83
2023/10/25 13:15:20;;;;;;;0.40;0.40;;;;;;;;;;5058521;28;20184;-83
2023/10/25 13:18:25;;;;;;;1.17;0.30;;;;;;;;;;5059602;28;20215;-83
2023/10/25 13:21:29;;;;;;;1.03;0.40;;;;;;;;;;5059706;28;20172;-83
2023/10/25 13:24:33;;;;;;;0.60;0.30;;;;;;;;;;5044148;28;20183;-81
2023/10/25 13:33:34;;;;;;;0.60;0.50;;;;;;;;;;5019802;28;20565;-81
2023/10/25 13:37:40;;;;;;;0.40;0.40;;;;;;;;;;5056877;28;20184;-83
2023/10/25 13:40:50;;;;;;;0.40;0.40;;;;;;;;;;5046276;28;20630;-80
2023/10/25 13:43:58;;;;;;;1.10;0.40;;;;;;;;;;5044742;28;20538;-82
2023/10/25 13:47:05;;;;;;;0.63;0.40;;;;;;;;;;5022625;28;20184;-82
2023/10/25 13:50:09;;;;;;;0.60;0.37;;;;;;;;;;5033370;28;20216;-82
2023/10/25 13:53:19;;;;;;;0.60;0.40;;;;;;;;;;5056366;28;20176;-81
2023/10/25 13:56:23;;;;;;;0.40;0.40;;;;;;;;;;5045111;28;20526;-81
2023/10/25 13:59:28;;;;;;;0.97;0.40;;;;;;;;;;5044693;28;20215;-81
2023/10/25 14:02:33;;;;;;;0.50;0.50;;;;;;;;;;5044396;28;20176;-82
2023/10/25 14:05:41;;;;;;;0.93;0.50;;;;;;;;;;5032773;28;20184;-82
2023/10/25 14:08:45;;;;;;;0.63;0.43;;;;;;;;;;5056078;28;20216;-82
2023/10/25 14:11:49;;;;;;;2.03;0.40;;;;;;;;;;5056922;28;20204;-82
2023/10/25 14:14:53;;;;;;;1.43;0.50;;;;;;;;;;5056392;28;20172;-82
2023/10/25 14:17:57;;;;;;;0.40;0.40;;;;;;;;;;5057865;28;20180;-82
2023/10/25 14:21:02;;;;;;;0.37;0.37;;;;;;;;;;5044975;28;20621;-82
2023/10/25 14:24:07;;;;;;;0.80;0.40;;;;;;;;;;5057152;28;20181;-82
2023/10/25 14:27:12;;;;;;;0.60;0.47;;;;;;;;;;5032740;28;20180;-82
2023/10/25 14:30:16;;;;;;;0.63;0.47;;;;;;;;;;5056533;28;20241;-82
2023/10/25 14:33:21;;;;;;;0.40;0.40;;;;;;;;;;5056202;28;20676;-82
2023/10/25 14:36:24;;;;;;;1.03;0.50;;;;;;;;;;5045346;28;20184;-81
2023/10/25 14:39:29;;;;;;;1.57;0.53;;;;;;;;;;5044753;28;20215;-82
2023/10/25 14:42:35;;;;;;;1.27;0.53;;;;;;;;;;5034268;28;20176;-82
2023/10/25 14:46:00;;;;;;;5.53;0.73;;;;;;;;;;5056088;28;20543;-82
2023/10/25 14:53:00;;;;;;;2.20;0.87;;;;;;;;;;5055754;28;20172;-82
2023/10/25 14:56:12;;;;;;;0.70;0.50;;;;;;;;;;5032013;28;20172;-82
2023/10/25 14:59:43;;;;;;;1.17;0.53;;;;;;;;;;5032608;28;20212;-82
2023/10/25 15:02:50;;;;;;;0.73;0.40;;;;;;;;;;5056099;28;20181;-82
2023/10/25 15:06:30;;;;;;;2.87;0.40;;;;;;;;;;5045367;28;20629;-82
2023/10/25 15:09:46;;;;;;;2.23;0.50;;;;;;;;;;5045231;28;20219;-83
2023/10/25 15:12:50;;;;;;;2.13;0.90;;;;;;;;;;5056907;28;20211;-82
2023/10/25 15:15:59;;;;;;;0.47;0.47;;;;;;;;;;5055235;28;20522;-83
2023/10/25 15:19:03;;;;;;;0.50;0.50;;;;;;;;;;5043938;28;20216;-83
2023/10/25 15:22:07;;;;;;;2.70;2.50;;;;;;;;;;5055173;28;20171;-82
2023/10/25 15:25:11;;;;;;;3.23;1.53;;;;;;;;;;5057481;28;20184;-82
2023/10/25 15:28:16;;;;;;;1.87;1.53;;;;;;;;;;5055182;28;20180;-82
2023/10/25 15:31:20;;;;;;;1.77;1.37;;;;;;;;;;5055281;28;20207;-82
2023/10/25 15:34:24;;;;;;;2.03;1.30;;;;;;;;;;5032345;28;20204;-82
2023/10/25 15:37:28;;;;;;;2.57;1.00;;;;;;;;;;5055024;28;20549;-82
2023/10/25 15:40:32;;;;;;;1.17;0.70;;;;;;;;;;5055316;28;20180;-82
2023/10/25 15:43:36;;;;;;;0.87;0.80;;;;;;;;;;5033219;28;20180;-82
2023/10/25 15:46:40;;;;;;;1.50;0.70;;;;;;;;;;5044920;28;20176;-82
2023/10/25 15:49:50;;;;;;;1.20;1.00;;;;;;;;;;5055617;28;20526;-82
2023/10/25 15:52:56;;;;;;;0.73;0.60;;;;;;;;;;5044662;28;20204;-82
2023/10/25 15:56:03;;;;;;;1.40;0.60;;;;;;;;;;5045432;28;20188;-82
2023/10/25 15:59:10;;;;;;;1.20;0.70;;;;;;;;;;5033679;28;20220;-82
2023/10/25 16:02:15;;;;;;;4.87;2.00;;;;;;;;;;5034432;28;20522;-82
2023/10/25 16:05:21;;;;;;;3.40;1.70;;;;;;;;;;5032565;28;20180;-82
2023/10/25 16:08:25;;;;;;;5.23;0.70;;;;;;;;;;5031628;28;20211;-82
2023/10/25 16:11:35;;;;;;;2.87;0.90;;;;;;;;;;5056012;28;20207;-82
2023/10/25 16:14:39;;;;;;;3.30;1.00;;;;;;;;;;5046868;28;20176;-82
2023/10/25 16:17:46;;;;;;;4.60;0.90;;;;;;;;;;5046509;28;20184;-82
2023/10/25 16:20:50;;;;;;;2.60;1.17;;;;;;;;;;5047372;28;20180;-82
2023/10/25 16:23:54;;;;;;;2.53;1.20;;;;;;;;;;5058709;28;20188;-82
2023/10/25 16:26:58;;;;;;;5.13;0.90;;;;;;;;;;5046389;28;20184;-82
2023/10/25 16:30:06;;;;;;;1.77;0.93;;;;;;;;;;5058668;28;20212;-82
2023/10/25 16:33:09;;;;;;;2.00;1.00;;;;;;;;;;5059374;28;20228;-82
2023/10/25 16:36:14;;;;;;;1.43;0.90;;;;;;;;;;5045991;28;20184;-82
2023/10/25 16:39:18;;;;;;;1.80;0.90;;;;;;;;;;5059823;28;20224;-82
2023/10/25 16:42:24;;;;;;;1.73;0.90;;;;;;;;;;5046354;28;20181;-82
2023/10/25 16:45:28;;;;;;;1.13;0.90;;;;;;;;;;5058024;28;20184;-82
2023/10/25 16:49:13;;;;;;;1.67;0.80;;;;;;;;;;5045582;28;20569;-83
2023/10/25 16:52:52;;;;;;;3.47;1.50;;;;;;;;;;5036339;28;20220;-84
2023/10/25 17:00:59;;;;;;;2.30;1.30;;;;;;;;;;5027405;28;20189;-84
2023/10/25 17:04:11;;;;;;;1.50;1.10;;;;;;;;;;5008876;28;20519;-83
2023/10/25 17:11:04;;;;;;;5.37;0.93;;;;;;;;;;5050265;28;20565;-83
2023/10/25 17:14:13;;;;;;;2.67;1.10;;;;;;;;;;5037358;28;20188;-83
2023/10/25 17:17:19;;;;;;;2.83;0.87;;;;;;;;;;5036928;28;20192;-81
2023/10/25 17:20:23;;;;;;;3.33;1.00;;;;;;;;;;5026477;28;20219;-82
2023/10/25 17:23:28;;;;;;;2.23;0.70;;;;;;;;;;5057031;28;20192;-82
2023/10/25 17:26:32;;;;;;;0.90;0.70;;;;;;;;;;5041890;28;20210;-82
2023/10/25 17:29:37;;;;;;;2.67;0.80;;;;;;;;;;5066544;28;20220;-82
2023/10/25 17:32:41;;;;;;;1.60;0.90;;;;;;;;;;5064985;28;20212;-82
2023/10/25 17:35:49;;;;;;;1.37;0.80;;;;;;;;;;5064878;28;20184;-83
2023/10/25 17:38:53;;;;;;;2.17;1.20;;;;;;;;;;5041257;28;20219;-81
2023/10/25 17:41:58;;;;;;;4.23;1.37;;;;;;;;;;5063401;28;20180;-82
2023/10/25 17:45:03;;;;;;;2.67;1.23;;;;;;;;;;5063660;28;20185;-82
2023/10/25 17:48:07;;;;;;;3.43;1.53;;;;;;;;;;5063883;28;20180;-82
2023/10/25 17:51:11;;;;;;;2.00;1.40;;;;;;;;;;5040449;28;20180;-82
2023/10/25 17:54:16;;;;;;;2.37;1.47;;;;;;;;;;5040286;28;20176;-82
2023/10/25 17:57:20;;;;;;;2.83;1.40;;;;;;;;;;5051470;28;20204;-82
2023/10/25 18:00:24;;;;;;;3.17;1.47;;;;;;;;;;5063450;28;20216;-82
2023/10/25 18:03:29;;;;;;;4.20;2.00;;;;;;;;;;5062731;28;20172;-82
2023/10/25 18:06:43;;;;;;;5.07;1.80;;;;;;;;;;5028534;28;20192;-82
2023/10/25 18:09:53;;;;;;;5.00;2.30;;;;;;;;;;5050387;28;20212;-82
2023/10/25 18:13:06;;;;;;;6.37;2.23;;;;;;;;;;5062267;28;20208;-82
2023/10/25 18:16:10;;;;;;;4.83;1.87;;;;;;;;;;5061164;28;20176;-82
2023/10/25 18:19:17;;;;;;;2.70;1.60;;;;;;;;;;5060803;28;20219;-81
2023/10/25 18:22:22;;;;;;;1.60;1.40;;;;;;;;;;5061080;28;20181;-81
2023/10/25 18:25:28;;;;;;;7.37;1.30;;;;;;;;;;5061410;28;20180;-81
2023/10/25 18:28:32;;;;;;;5.10;1.70;;;;;;;;;;5060784;28;20696;-82
2023/10/25 18:31:36;;;;;;;4.50;1.70;;;;;;;;;;5059440;28;20180;-82
2023/10/25 18:34:40;;;;;;;2.30;1.53;;;;;;;;;;5058640;28;20561;-82
2023/10/25 18:37:44;;;;;;;2.17;1.23;;;;;;;;;;5059018;28;20188;-82
2023/10/25 18:40:57;;;;;;;1.90;1.17;;;;;;;;;;5057964;28;20184;-81
2023/10/25 18:44:02;;;;;;;3.17;1.40;;;;;;;;;;5058177;28;20176;-81
2023/10/25 18:47:08;;;;;;;5.77;1.13;;;;;;;;;;5047074;28;20180;-81
2023/10/25 18:50:12;;;;;;;2.03;1.13;;;;;;;;;;5058163;28;20215;-81
2023/10/25 18:53:16;;;;;;;1.53;1.10;;;;;;;;;;5058085;28;20204;-81
2023/10/25 18:56:20;;;;;;;1.73;1.20;;;;;;;;;;5058465;28;20180;-81
2023/10/25 18:59:25;;;;;;;1.83;1.23;;;;;;;;;;5058538;28;20223;-81
2023/10/25 19:02:29;;;;;;;3.10;1.20;;;;;;;;;;5046518;28;20176;-81
2023/10/25 19:05:37;;;;;;;1.80;1.20;;;;;;;;;;5035202;28;20172;-81
2023/10/25 19:08:42;;;;;;;2.10;1.27;;;;;;;;;;5045406;28;20212;-82
2023/10/25 19:11:50;;;;;;;2.43;1.47;;;;;;;;;;5045804;28;20625;-81
2023/10/25 19:14:54;;;;;;;3.17;1.33;;;;;;;;;;5045128;28;20180;-81
2023/10/25 19:17:59;;;;;;;1.50;1.10;;;;;;;;;;5057432;28;20184;-81
2023/10/25 19:21:06;;;;;;;2.40;1.27;;;;;;;;;;5057487;28;20180;-81
2023/10/25 19:24:12;;;;;;;3.97;1.10;;;;;;;;;;5056741;28;20188;-81
2023/10/25 19:27:17;;;;;;;3.50;1.40;;;;;;;;;;5044737;28;20177;-81
2023/10/25 19:30:22;;;;;;;3.10;1.30;;;;;;;;;;5045237;28;20227;-81
2023/10/25 19:33:27;;;;;;;1.60;1.50;;;;;;;;;;5034695;28;20228;-81
2023/10/25 19:36:43;;;;;;;2.43;1.40;;;;;;;;;;5047390;28;20180;-81
2023/10/25 19:39:53;;;;;;;1.73;1.00;;;;;;;;;;5057924;28;20212;-81
2023/10/25 19:42:58;;;;;;;1.30;1.10;;;;;;;;;;5057454;28;20172;-82
2023/10/25 19:46:03;;;;;;;3.37;1.23;;;;;;;;;;5057367;28;20188;-82
2023/10/25 19:49:09;;;;;;;2.27;1.23;;;;;;;;;;5045464;28;20216;-82
2023/10/25 19:52:13;;;;;;;2.20;1.30;;;;;;;;;;5045234;28;20200;-82
2023/10/25 19:55:17;;;;;;;5.37;1.70;;;;;;;;;;5045544;28;20188;-82
2023/10/25 19:58:24;;;;;;;4.67;1.40;;;;;;;;;;5034572;28;20212;-83
2023/10/25 20:01:32;;;;;;;2.50;0.97;;;;;;;;;;5035025;28;20641;-83
2023/10/25 20:04:37;;;;;;;1.23;0.73;;;;;;;;;;5057589;28;20176;-83
2023/10/25 20:07:43;;;;;;;1.00;0.60;;;;;;;;;;5044852;28;20183;-83
2023/10/25 20:10:58;;;;;;;1.57;0.70;;;;;;;;;;5044888;28;20180;-83
2023/10/25 20:14:02;;;;;;;1.70;0.73;;;;;;;;;;5045182;28;20203;-83
2023/10/25 20:17:06;;;;;;;2.50;0.60;;;;;;;;;;5044887;28;20176;-83
2023/10/25 20:20:11;;;;;;;0.60;0.47;;;;;;;;;;5056795;28;20219;-83
2023/10/25 20:23:15;;;;;;;0.93;0.60;;;;;;;;;;5057458;28;20172;-82
2023/10/25 20:26:19;;;;;;;1.10;0.60;;;;;;;;;;5056345;28;20184;-83
2023/10/25 20:29:23;;;;;;;3.17;0.70;;;;;;;;;;5056982;28;20219;-83
2023/10/25 20:32:29;;;;;;;2.30;0.70;;;;;;;;;;5056694;28;20204;-83
2023/10/25 20:35:37;;;;;;;2.03;0.70;;;;;;;;;;5045440;28;20510;-83
2023/10/25 20:38:42;;;;;;;2.10;0.60;;;;;;;;;;5056706;28;20684;-83
2023/10/25 20:41:46;;;;;;;1.60;0.60;;;;;;;;;;5055641;28;20184;-83
2023/10/25 20:44:52;;;;;;;1.53;0.73;;;;;;;;;;5032793;28;20522;-83
2023/10/25 20:47:58;;;;;;;0.77;0.57;;;;;;;;;;5056405;28;20637;-83
2023/10/25 20:51:03;;;;;;;1.50;0.43;;;;;;;;;;5033162;28;20180;-83
2023/10/25 20:54:08;;;;;;;0.90;0.60;;;;;;;;;;5056665;28;20204;-83
2023/10/25 20:57:12;;;;;;;1.90;0.80;;;;;;;;;;5057051;28;20375;-83
2023/10/25 21:00:17;;;;;;;2.27;0.60;;;;;;;;;;5040264;28;20224;-83